Time;durP1;ratioP1;P1;durP2;ratioP2;P2;SDS_P1;SDS_P2;PMS_P1;PMS_P2;Temp;Humidity;BMP_temperature;BMP_pressure;BME280_temperature;BME280_humidity;BME280_pressure;Samples;Min_cycle;Max_cycle;Signal;HPM_P1;HPM_P2
2022/01/19 00:01:49;;;;;;;20.00;6.13;;;23.80;56.90;;;;;;4997834;28;21692;-68
2022/01/19 00:04:55;;;;;;;17.15;5.50;;;23.80;57.00;;;;;;4998024;28;20057;-70
2022/01/19 00:08:03;;;;;;;22.17;6.22;;;23.70;57.10;;;;;;4996826;28;20038;-73
2022/01/19 00:10:29;;;;;;;24.13;6.47;;;23.70;57.30;;;;;;4998764;28;20048;-71
2022/01/19 00:12:57;;;;;;;26.38;6.07;;;23.70;57.40;;;;;;5000073;28;20023;-71
2022/01/19 00:15:25;;;;;;;26.98;8.30;;;23.70;57.60;;;;;;4996453;28;20414;-70
2022/01/19 00:17:57;;;;;;;24.48;7.53;;;23.70;57.90;;;;;;4998267;28;20465;-71
2022/01/19 00:20:26;;;;;;;26.83;6.70;;;23.70;58.10;;;;;;4982680;28;20030;-69
2022/01/19 00:22:53;;;;;;;19.90;6.47;;;23.70;58.10;;;;;;4997836;28;20084;-69
2022/01/19 00:25:21;;;;;;;17.27;6.45;;;23.70;58.00;;;;;;5000518;28;20023;-70
2022/01/19 00:27:47;;;;;;;22.92;7.55;;;23.70;58.00;;;;;;4998715;28;20026;-69
2022/01/19 00:30:14;;;;;;;17.40;7.05;;;23.60;58.00;;;;;;4998241;28;20015;-68
2022/01/19 00:32:41;;;;;;;21.85;6.78;;;23.60;58.00;;;;;;4999428;28;20043;-74
2022/01/19 00:35:09;;;;;;;18.88;6.20;;;23.60;58.00;;;;;;4997442;28;20358;-69
2022/01/19 00:37:37;;;;;;;17.75;6.50;;;23.60;58.00;;;;;;4999202;28;20022;-69
2022/01/19 00:40:05;;;;;;;17.25;6.20;;;23.60;57.90;;;;;;4999442;28;20022;-69
2022/01/19 00:42:31;;;;;;;19.48;5.82;;;23.60;58.00;;;;;;5000362;28;20025;-69
2022/01/19 00:44:58;;;;;;;19.77;6.38;;;23.60;58.10;;;;;;4998295;28;20025;-69
2022/01/19 00:47:25;;;;;;;17.50;5.70;;;23.60;58.10;;;;;;4998001;28;20398;-68
2022/01/19 00:49:53;;;;;;;18.63;5.00;;;23.50;58.00;;;;;;4995922;28;20025;-74
2022/01/19 00:52:20;;;;;;;16.17;5.63;;;23.50;58.00;;;;;;4998427;28;20472;-69
2022/01/19 00:54:48;;;;;;;14.90;5.65;;;23.50;58.10;;;;;;5000061;28;20014;-70
2022/01/19 00:57:14;;;;;;;17.27;6.32;;;23.50;58.20;;;;;;4997380;28;20037;-68
2022/01/19 00:59:41;;;;;;;17.48;5.57;;;23.50;58.20;;;;;;4999520;28;20018;-69
2022/01/19 01:02:07;;;;;;;16.17;5.00;;;23.40;58.20;;;;;;4998804;28;20497;-69
2022/01/19 01:04:34;;;;;;;22.65;6.45;;;23.50;58.40;;;;;;5000188;28;20030;-69
2022/01/19 01:07:00;;;;;;;18.10;6.22;;;23.40;58.50;;;;;;4998799;28;20018;-70
2022/01/19 01:09:28;;;;;;;18.52;5.55;;;23.40;58.70;;;;;;4997370;28;20087;-70
2022/01/19 01:12:20;;;;;;;20.05;6.55;;;23.40;58.70;;;;;;5000117;28;20578;-72
2022/01/19 01:18:33;;;;;;;20.13;6.47;;;23.40;58.90;;;;;;4996865;28;20428;-69
2022/01/19 01:20:28;;;;;;;19.40;6.22;;;23.40;58.90;;;;;;4986534;28;20046;-69
2022/01/19 01:22:55;;;;;;;17.77;6.95;;;23.30;58.90;;;;;;4997076;28;20018;-70
2022/01/19 01:25:21;;;;;;;13.75;5.50;;;23.30;58.90;;;;;;4999488;28;20317;-72
2022/01/19 01:27:48;;;;;;;17.88;5.05;;;23.30;58.90;;;;;;4998423;28;20362;-69
2022/01/19 01:30:15;;;;;;;19.25;5.15;;;23.30;59.00;;;;;;4998026;28;20112;-70
2022/01/19 01:32:42;;;;;;;18.17;4.40;;;23.30;59.00;;;;;;4997589;28;20101;-69
2022/01/19 01:35:09;;;;;;;17.00;6.13;;;23.20;59.00;;;;;;4998648;28;20033;-69
2022/01/19 01:37:36;;;;;;;17.80;4.75;;;23.20;59.00;;;;;;4998064;28;20029;-70
2022/01/19 01:40:05;;;;;;;25.30;5.40;;;23.20;59.10;;;;;;4998251;28;20018;-70
2022/01/19 01:42:32;;;;;;;22.60;5.40;;;23.20;59.00;;;;;;4998938;28;20525;-69
2022/01/19 01:45:01;;;;;;;19.25;5.57;;;23.20;59.00;;;;;;4999450;28;20088;-74
2022/01/19 01:47:29;;;;;;;18.83;5.57;;;23.10;59.00;;;;;;5000084;28;20113;-69
2022/01/19 01:55:12;;;;;;;21.35;5.32;;;23.10;58.90;;;;;;4995456;28;20037;-69
2022/01/19 01:57:39;;;;;;;19.27;4.63;;;23.10;58.90;;;;;;5001104;28;20049;-69
2022/01/19 02:00:09;;;;;;;13.60;4.85;;;23.10;59.00;;;;;;5002262;28;20124;-70
2022/01/19 02:02:36;;;;;;;22.52;6.20;;;23.10;59.00;;;;;;5000580;28;20061;-70
2022/01/19 02:05:04;;;;;;;17.08;5.50;;;23.10;59.00;;;;;;4998864;28;20026;-69
2022/01/19 02:10:32;;;;;;;18.20;5.57;;;23.10;58.90;;;;;;4998117;28;20061;-69
2022/01/19 02:23:57;;;;;;;19.42;7.00;;;23.00;58.80;;;;;;4998886;28;20097;-69
2022/01/19 02:26:49;;;;;;;24.42;5.07;;;23.00;58.70;;;;;;5000525;28;20029;-68
2022/01/19 02:29:48;;;;;;;19.55;5.75;;;23.00;59.00;;;;;;5000942;28;20042;-70
2022/01/19 02:40:27;;;;;;;24.70;5.80;;;22.90;58.90;;;;;;4999113;28;20028;-72
2022/01/19 02:43:06;;;;;;;17.67;6.47;;;22.90;59.10;;;;;;5000319;28;20396;-70
2022/01/19 02:51:07;;;;;;;;;;;22.80;59.70;;;;;;5001808;28;20029;-71
2022/01/19 02:53:35;;;;;;;15.98;5.00;;;22.80;59.90;;;;;;5015935;28;20311;-69
2022/01/19 02:56:08;;;;;;;14.70;5.57;;;22.80;59.90;;;;;;5000777;28;20144;-69
2022/01/19 02:58:40;;;;;;;13.80;4.82;;;22.70;60.00;;;;;;4996827;28;20018;-69
2022/01/19 03:09:24;;;;;;;21.40;7.40;;;22.70;60.40;;;;;;4978260;28;20315;-72
2022/01/19 03:11:52;;;;;;;19.02;6.40;;;22.60;60.40;;;;;;5001086;28;20023;-72
2022/01/19 03:14:19;;;;;;;18.77;5.50;;;22.70;60.50;;;;;;4999609;28;20014;-72
2022/01/19 03:16:46;;;;;;;20.60;5.72;;;22.60;60.50;;;;;;5000483;28;20496;-69
2022/01/19 03:19:13;;;;;;;19.80;6.82;;;22.60;60.50;;;;;;4998550;28;20022;-72
2022/01/19 03:21:41;;;;;;;21.48;5.75;;;22.60;60.50;;;;;;5001507;28;20022;-70
2022/01/19 03:24:51;;;;;;;32.67;6.72;;;22.60;60.60;;;;;;4999228;28;20026;-69
2022/01/19 03:27:57;;;;;;;37.13;6.45;;;22.60;60.60;;;;;;4998026;28;20042;-71
2022/01/19 03:30:52;;;;;;;29.52;6.22;;;22.50;60.70;;;;;;5000071;28;20011;-73
2022/01/19 03:33:19;;;;;;;27.98;6.15;;;22.50;60.70;;;;;;4997801;28;20113;-71
2022/01/19 03:35:45;;;;;;;22.23;5.78;;;22.50;61.00;;;;;;5001467;28;20105;-73
2022/01/19 03:38:13;;;;;;;49.97;8.07;;;22.50;61.30;;;;;;4996835;28;20065;-71
2022/01/19 03:40:40;;;;;;;80.20;9.95;;;22.50;61.50;;;;;;4998642;28;20381;-74
2022/01/19 03:43:08;;;;;;;38.40;6.20;;;22.40;61.70;;;;;;5001158;28;20381;-70
2022/01/19 03:45:35;;;;;;;28.40;6.40;;;22.40;61.80;;;;;;4998505;28;20029;-75
2022/01/19 03:48:15;;;;;;;24.77;7.90;;;22.40;61.70;;;;;;5000881;28;20030;-69
2022/01/19 03:50:42;;;;;;;36.70;6.75;;;22.40;61.80;;;;;;4996469;28;20014;-69
2022/01/19 03:53:08;;;;;;;27.95;7.00;;;22.40;62.10;;;;;;5000316;28;20042;-75
2022/01/19 03:55:35;;;;;;;31.27;5.65;;;22.40;62.10;;;;;;5002668;28;20018;-70
2022/01/19 03:58:01;;;;;;;23.67;6.65;;;22.40;62.90;;;;;;5004945;28;20109;-71
2022/01/19 04:00:30;;;;;;;54.28;20.63;;;22.20;62.60;;;;;;5009344;28;20485;-73
2022/01/19 04:02:57;;;;;;;50.45;24.40;;;22.10;63.20;;;;;;4998275;28;20069;-75
2022/01/19 04:05:37;;;;;;;47.63;19.27;;;22.10;63.50;;;;;;5000873;28;20030;-82
2022/01/19 04:08:04;;;;;;;23.13;12.27;;;22.10;63.40;;;;;;4997036;28;20034;-74
2022/01/19 04:10:31;;;;;;;56.00;13.68;;;22.10;63.30;;;;;;5000565;28;20098;-78
2022/01/19 04:13:10;;;;;;;48.95;9.73;;;22.10;63.50;;;;;;4998641;28;20477;-72
2022/01/19 04:15:39;;;;;;;33.60;7.45;;;22.10;63.60;;;;;;4998168;28;20097;-72
2022/01/19 04:18:05;;;;;;;24.13;7.13;;;22.20;63.90;;;;;;5000250;28;20022;-73
2022/01/19 04:20:40;;;;;;;20.80;6.40;;;22.20;63.90;;;;;;4998322;28;20014;-74
2022/01/19 04:23:07;;;;;;;17.73;6.10;;;22.20;64.00;;;;;;4996882;28;20025;-75
2022/01/19 04:25:33;;;;;;;25.05;5.53;;;22.20;64.00;;;;;;4996352;28;20386;-70
2022/01/19 04:28:06;;;;;;;20.55;6.45;;;22.20;64.00;;;;;;4996724;28;20031;-73
2022/01/19 04:30:36;;;;;;;18.05;5.25;;;22.20;64.20;;;;;;5002243;28;20077;-75
2022/01/19 04:33:44;;;;;;;29.08;6.38;;;22.20;64.20;;;;;;4995027;28;20473;-73
2022/01/19 04:47:49;;;;;;;27.45;6.50;;;22.20;64.20;;;;;;4995667;28;20060;-71
2022/01/19 05:03:53;;;;;;;47.15;6.82;;;22.20;64.30;;;;;;4994734;28;20091;-69
2022/01/19 05:06:21;;;;;;;21.67;5.30;;;22.20;64.40;;;;;;4996636;28;20030;-73
2022/01/19 05:08:57;;;;;;;30.17;7.38;;;22.20;64.40;;;;;;4994985;28;20079;-75
2022/01/19 05:14:11;;;;;;;31.20;6.65;;;22.20;64.10;;;;;;4977810;28;20409;-69
2022/01/19 05:16:37;;;;;;;37.70;7.20;;;22.20;63.90;;;;;;4998423;28;20022;-72
2022/01/19 05:19:04;;;;;;;28.58;6.13;;;22.20;63.90;;;;;;4998369;28;20469;-72
2022/01/19 05:21:30;;;;;;;27.73;6.43;;;22.10;64.20;;;;;;4998237;28;20363;-70
2022/01/19 05:24:03;;;;;;;37.95;6.55;;;22.20;63.50;;;;;;4999724;28;20022;-71
2022/01/19 05:26:30;;;;;;;22.05;6.45;;;22.10;63.40;;;;;;4997878;28;20029;-69
2022/01/19 05:28:56;;;;;;;18.25;4.63;;;22.10;63.30;;;;;;4995913;28;20139;-71
2022/01/19 05:31:23;;;;;;;29.20;6.53;;;22.20;63.20;;;;;;5001905;28;20462;-69
2022/01/19 05:33:49;;;;;;;19.80;4.82;;;22.20;63.00;;;;;;5002515;28;20105;-70
2022/01/19 05:36:16;;;;;;;39.03;6.78;;;22.20;63.20;;;;;;5000107;28;20033;-70
2022/01/19 05:38:42;;;;;;;35.20;6.47;;;22.20;63.40;;;;;;5001071;28;20097;-70
2022/01/19 05:41:08;;;;;;;28.85;7.07;;;22.20;63.60;;;;;;5002035;28;20029;-70
2022/01/19 05:43:35;;;;;;;33.60;6.35;;;22.20;63.30;;;;;;5002829;28;20018;-69
2022/01/19 05:46:01;;;;;;;44.95;7.25;;;22.30;62.80;;;;;;5001843;28;20025;-70
2022/01/19 05:48:28;;;;;;;26.13;5.95;;;22.30;62.40;;;;;;5001838;28;20389;-75
2022/01/19 05:50:54;;;;;;;26.30;6.05;;;22.30;61.90;;;;;;5002536;28;20351;-69
2022/01/19 05:53:21;;;;;;;24.65;5.68;;;22.30;61.50;;;;;;5002104;28;20022;-70
2022/01/19 05:55:47;;;;;;;24.92;6.13;;;22.40;61.20;;;;;;5000572;28;20454;-71
2022/01/19 05:58:14;;;;;;;20.98;4.75;;;22.40;60.90;;;;;;5003325;28;20031;-71
2022/01/19 06:00:40;;;;;;;20.17;4.80;;;22.40;60.40;;;;;;5001369;28;20022;-69
2022/01/19 06:03:07;;;;;;;13.05;3.67;;;22.40;59.90;;;;;;5003469;28;20057;-70
2022/01/19 06:05:34;;;;;;;17.65;4.90;;;22.50;59.70;;;;;;4998642;28;20018;-69
2022/01/19 06:08:49;;;;;;;13.73;2.97;;;22.40;59.20;;;;;;5001446;28;20037;-70
2022/01/19 06:10:48;;;;;;;15.35;4.80;;;22.50;59.10;;;;;;4993979;28;20057;-69
2022/01/19 06:13:18;;;;;;;11.02;3.78;;;22.50;58.90;;;;;;5001726;28;20465;-71
2022/01/19 06:15:46;;;;;;;17.65;4.60;;;22.50;58.70;;;;;;5001674;28;20403;-69
2022/01/19 06:18:13;;;;;;;12.32;3.10;;;22.60;58.60;;;;;;5001013;28;20019;-74
2022/01/19 06:20:40;;;;;;;14.43;3.63;;;22.60;58.30;;;;;;5002674;28;20116;-70
2022/01/19 06:23:07;;;;;;;17.98;4.50;;;22.60;58.10;;;;;;5001276;28;20018;-70
2022/01/19 06:25:34;;;;;;;15.95;3.65;;;22.60;57.90;;;;;;5000801;28;20377;-69
2022/01/19 06:28:00;;;;;;;15.38;3.50;;;22.70;57.90;;;;;;5002848;28;20042;-69
2022/01/19 06:30:27;;;;;;;12.00;3.85;;;22.70;57.80;;;;;;4999682;28;20014;-70
2022/01/19 06:32:54;;;;;;;16.80;3.78;;;22.70;57.70;;;;;;5001473;28;20029;-69
2022/01/19 06:35:22;;;;;;;11.68;3.88;;;22.80;57.60;;;;;;5001851;28;20108;-69
2022/01/19 06:37:49;;;;;;;17.90;4.63;;;22.80;57.50;;;;;;4999585;28;20018;-70
2022/01/19 06:40:18;;;;;;;14.32;4.22;;;22.90;57.50;;;;;;5000805;28;20025;-69
2022/01/19 06:42:45;;;;;;;10.90;3.28;;;22.90;57.60;;;;;;5000531;28;20022;-70
2022/01/19 06:45:13;;;;;;;12.13;4.55;;;22.90;57.60;;;;;;5000906;28;20017;-71
2022/01/19 06:47:40;;;;;;;19.65;4.78;;;22.90;57.40;;;;;;5000867;28;20022;-70
2022/01/19 06:50:09;;;;;;;17.48;3.70;;;23.00;57.10;;;;;;5001809;28;20041;-71
2022/01/19 06:52:37;;;;;;;12.48;3.92;;;23.00;56.80;;;;;;4999848;28;20567;-72
2022/01/19 06:55:05;;;;;;;19.45;4.00;;;23.00;56.60;;;;;;5002372;28;20018;-69
2022/01/19 06:57:32;;;;;;;18.73;4.85;;;23.10;56.40;;;;;;5000650;28;20143;-69
2022/01/19 06:59:59;;;;;;;20.85;4.63;;;23.10;56.20;;;;;;4999918;28;20025;-70
2022/01/19 07:02:28;;;;;;;25.13;4.60;;;23.10;56.10;;;;;;5002067;28;20062;-69
2022/01/19 07:04:54;;;;;;;21.10;3.88;;;23.20;56.20;;;;;;4999396;28;20069;-69
2022/01/19 07:07:21;;;;;;;10.15;3.58;;;23.20;56.10;;;;;;5000543;28;20034;-69
2022/01/19 07:09:49;;;;;;;13.55;4.43;;;23.20;56.00;;;;;;5001501;28;20076;-69
2022/01/19 07:12:16;;;;;;;21.10;3.78;;;23.30;56.10;;;;;;4999244;28;20021;-70
2022/01/19 07:14:42;;;;;;;13.52;4.28;;;23.30;56.00;;;;;;4999747;28;20030;-69
2022/01/19 07:17:09;;;;;;;16.13;3.45;;;23.30;55.80;;;;;;5000742;28;20371;-69
2022/01/19 07:19:36;;;;;;;19.88;3.58;;;23.40;55.80;;;;;;5001524;28;20014;-69
2022/01/19 07:22:02;;;;;;;23.15;3.85;;;23.40;55.60;;;;;;4999036;28;20029;-69
2022/01/19 07:24:29;;;;;;;20.05;4.10;;;23.40;55.50;;;;;;5001137;28;20021;-72
2022/01/19 07:26:55;;;;;;;22.13;5.05;;;23.50;55.40;;;;;;5000252;28;20014;-70
2022/01/19 07:29:22;;;;;;;30.25;6.10;;;23.50;54.90;;;;;;5000062;28;20462;-69
2022/01/19 07:31:48;;;;;;;30.95;5.57;;;23.50;54.70;;;;;;5000208;28;20029;-74
2022/01/19 07:34:15;;;;;;;20.48;4.68;;;23.60;54.80;;;;;;5000070;28;20029;-72
2022/01/19 07:36:42;;;;;;;15.93;3.55;;;23.60;54.70;;;;;;5001463;28;20021;-69
2022/01/19 07:39:09;;;;;;;23.00;3.70;;;23.70;54.70;;;;;;4999190;28;20068;-71
2022/01/19 07:41:35;;;;;;;12.88;4.43;;;23.80;54.40;;;;;;5000154;28;20397;-69
2022/01/19 07:44:02;;;;;;;20.60;4.10;;;23.80;54.40;;;;;;5000294;28;20466;-69
2022/01/19 07:46:28;;;;;;;28.08;7.15;;;23.80;54.40;;;;;;5000023;28;20024;-70
2022/01/19 07:48:55;;;;;;;23.38;5.35;;;23.90;54.40;;;;;;4998056;28;20057;-69
2022/01/19 07:51:21;;;;;;;31.70;5.35;;;23.90;54.30;;;;;;4997191;28;20027;-75
2022/01/19 07:53:48;;;;;;;21.80;3.25;;;24.00;54.40;;;;;;4998023;28;20018;-72
2022/01/19 07:56:14;;;;;;;18.58;3.33;;;24.00;54.00;;;;;;4998345;28;20027;-70
2022/01/19 07:58:40;;;;;;;17.23;4.90;;;24.00;53.50;;;;;;4999610;28;20030;-74
2022/01/19 08:01:07;;;;;;;20.98;4.30;;;24.10;53.60;;;;;;4996235;28;20034;-70
2022/01/19 08:03:33;;;;;;;12.73;3.90;;;24.10;53.10;;;;;;5002948;28;20038;-71
2022/01/19 08:06:00;;;;;;;20.30;4.97;;;24.10;53.40;;;;;;4999512;28;20030;-73
2022/01/19 08:08:26;;;;;;;16.33;5.13;;;24.10;53.60;;;;;;4999290;28;20041;-69
2022/01/19 08:10:53;;;;;;;13.82;4.25;;;24.20;53.90;;;;;;4997097;28;20018;-75
2022/01/19 08:13:21;;;;;;;13.73;3.33;;;24.20;54.00;;;;;;4998876;28;20014;-73
2022/01/19 08:15:47;;;;;;;22.77;4.63;;;24.20;53.90;;;;;;4997949;28;20827;-70
2022/01/19 08:18:14;;;;;;;26.70;4.90;;;24.30;53.80;;;;;;4999000;28;20022;-73
2022/01/19 08:20:43;;;;;;;14.13;3.58;;;24.30;53.60;;;;;;4998720;28;20481;-73
2022/01/19 08:23:11;;;;;;;11.40;4.03;;;24.30;53.30;;;;;;4996638;28;20022;-75
2022/01/19 08:25:38;;;;;;;25.60;4.90;;;24.40;53.20;;;;;;4998649;28;20056;-71
2022/01/19 08:28:05;;;;;;;19.08;4.03;;;24.40;52.90;;;;;;4998205;28;20517;-73
2022/01/19 08:30:32;;;;;;;24.73;5.10;;;24.50;53.30;;;;;;4997231;28;20116;-74
2022/01/19 08:32:58;;;;;;;22.20;3.95;;;24.60;53.40;;;;;;4997400;28;20125;-70
2022/01/19 08:35:25;;;;;;;23.35;4.47;;;24.70;53.30;;;;;;4996303;28;20049;-69
2022/01/19 08:37:51;;;;;;;14.63;3.95;;;24.70;53.00;;;;;;4999442;28;20523;-72
2022/01/19 08:40:25;;;;;;;13.27;3.67;;;24.80;52.80;;;;;;4999444;28;20397;-69
2022/01/19 08:42:52;;;;;;;12.82;4.43;;;24.80;53.00;;;;;;4997011;28;20022;-69
2022/01/19 08:45:18;;;;;;;11.38;3.78;;;24.90;52.90;;;;;;4999263;28;20387;-71
2022/01/19 08:47:46;;;;;;;14.27;3.65;;;24.90;53.00;;;;;;4999050;28;20042;-75
2022/01/19 08:50:15;;;;;;;26.10;4.85;;;25.00;53.20;;;;;;4998529;28;20088;-72
2022/01/19 08:53:21;;;;;;;17.45;4.82;;;25.00;53.20;;;;;;4999469;28;20042;-73
2022/01/19 08:56:07;;;;;;;;;;;25.10;52.90;;;;;;4998351;28;20049;-75
2022/01/19 08:59:13;;;;;;;17.02;4.50;;;25.20;52.70;;;;;;4995633;28;19905;-70
2022/01/19 09:01:59;;;;;;;;;;;25.30;52.30;;;;;;4997095;28;20118;-74
2022/01/19 09:05:05;;;;;;;23.38;4.45;;;25.30;51.90;;;;;;4995404;28;20373;-72
2022/01/19 09:07:52;;;;;;;;;;;25.40;52.30;;;;;;4997744;28;20027;-70
2022/01/19 09:10:58;;;;;;;15.80;3.65;;;25.40;51.80;;;;;;4994966;28;19906;-70
2022/01/19 09:14:06;;;;;;;15.05;5.22;;;25.50;51.40;;;;;;4997888;28;20019;-71
2022/01/19 09:17:12;;;;;;;8.43;3.47;;;25.60;51.30;;;;;;4996055;28;20044;-74
2022/01/19 09:19:58;;;;;;;;;;;25.60;51.60;;;;;;4996728;28;20118;-71
2022/01/19 09:23:04;;;;;;;21.63;4.35;;;25.70;51.30;;;;;;4995829;28;20346;-72
2022/01/19 09:25:50;;;;;;;;;;;25.80;50.80;;;;;;4998367;28;20439;-73
2022/01/19 09:28:56;;;;;;;28.27;4.55;;;25.80;50.80;;;;;;4994822;28;19917;-70
2022/01/19 09:32:06;;;;;;;31.00;6.45;;;25.90;50.80;;;;;;4997272;28;20106;-71
2022/01/19 09:35:22;;;;;;;30.35;6.38;;;26.00;50.20;;;;;;4996147;28;20721;-69
2022/01/19 09:38:28;;;;;;;18.63;5.33;;;26.10;49.60;;;;;;4996439;28;20429;-69
2022/01/19 09:41:14;;;;;;;;;;;26.20;48.80;;;;;;4996098;28;20743;-69
2022/01/19 09:44:20;;;;;;;48.70;7.22;;;26.20;48.50;;;;;;4996595;28;20348;-70
2022/01/19 09:46:47;;;;;;;22.33;4.82;;;26.30;48.70;;;;;;4999758;28;20060;-70
2022/01/19 09:49:17;;;;;;;13.02;3.83;;;26.30;48.80;;;;;;4996821;28;20096;-72
2022/01/19 09:51:45;;;;;;;23.42;4.30;;;26.40;48.40;;;;;;4995515;28;20443;-73
2022/01/19 09:54:18;;;;;;;11.55;3.55;;;26.40;48.10;;;;;;4998014;28;20068;-71
2022/01/19 09:56:44;;;;;;;11.15;3.60;;;26.50;47.00;;;;;;4998388;28;20097;-72
2022/01/19 09:59:15;;;;;;;19.65;5.80;;;26.60;47.10;;;;;;4997373;28;20470;-73
2022/01/19 10:01:56;;;;;;;17.80;3.72;;;26.60;47.20;;;;;;4995138;28;20105;-73
2022/01/19 10:04:25;;;;;;;7.57;3.30;;;26.70;47.00;;;;;;4998416;28;20114;-70
2022/01/19 10:07:09;;;;;;;22.02;4.82;;;26.70;46.90;;;;;;4998756;28;20420;-77
2022/01/19 10:09:49;;;;;;;14.68;4.07;;;26.80;47.40;;;;;;4999409;28;20030;-71
2022/01/19 10:18:16;;;;;;;20.20;5.97;;;27.00;47.90;;;;;;4997836;28;20028;-73
2022/01/19 10:20:44;;;;;;;18.60;6.10;;;27.00;48.10;;;;;;4998570;28;20113;-70
2022/01/19 10:23:36;;;;;;;21.05;6.57;;;27.10;48.20;;;;;;5002390;28;20050;-73
2022/01/19 10:26:11;;;;;;;17.98;7.00;;;27.00;47.90;;;;;;5001239;28;20027;-73
2022/01/19 10:29:14;;;;;;;20.60;6.28;;;27.00;48.10;;;;;;5001380;28;20552;-71
2022/01/19 10:31:41;;;;;;;16.00;5.90;;;27.10;47.80;;;;;;5002709;28;20062;-70
2022/01/19 10:34:21;;;;;;;16.65;5.78;;;27.10;47.50;;;;;;5001391;28;20500;-73
2022/01/19 10:36:51;;;;;;;20.48;5.88;;;27.20;48.00;;;;;;5001494;28;20474;-74
2022/01/19 10:39:19;;;;;;;27.33;6.82;;;27.20;47.90;;;;;;4999847;28;20014;-71
2022/01/19 10:42:02;;;;;;;18.15;6.32;;;27.20;47.20;;;;;;5000168;28;20105;-73
2022/01/19 10:44:33;;;;;;;28.20;5.85;;;27.30;47.20;;;;;;5000941;28;20378;-72
2022/01/19 10:47:00;;;;;;;22.17;6.10;;;27.30;47.40;;;;;;5001458;28;20015;-70
2022/01/19 10:49:26;;;;;;;15.82;5.80;;;27.30;47.50;;;;;;5001541;28;20033;-72
2022/01/19 10:51:58;;;;;;;22.83;7.47;;;27.30;47.40;;;;;;5000697;28;20025;-71
2022/01/19 10:54:27;;;;;;;22.13;7.28;;;27.40;47.60;;;;;;4998390;28;20018;-70
2022/01/19 10:56:58;;;;;;;28.40;6.50;;;27.30;47.40;;;;;;5000655;28;20018;-69
2022/01/19 10:59:30;;;;;;;61.05;11.88;;;27.40;47.20;;;;;;5000251;28;20103;-71
2022/01/19 11:02:00;;;;;;;27.80;7.93;;;27.40;47.50;;;;;;5001122;28;20042;-70
2022/01/19 11:04:35;;;;;;;23.25;5.90;;;27.40;47.50;;;;;;5000279;28;20011;-72
2022/01/19 11:07:03;;;;;;;;;;;27.40;47.20;;;;;;4998353;28;20090;-71
2022/01/19 11:09:32;;;;;;;21.13;7.05;;;27.50;47.40;;;;;;4998010;28;19929;-71
2022/01/19 11:12:11;;;;;;;22.10;5.47;;;27.50;47.20;;;;;;5000700;28;20105;-72
2022/01/19 11:14:40;;;;;;;24.42;6.07;;;27.50;47.10;;;;;;5002036;28;20018;-71
2022/01/19 11:17:08;;;;;;;18.92;5.70;;;27.50;46.80;;;;;;4999430;28;20014;-70
2022/01/19 11:19:43;;;;;;;27.73;8.60;;;27.60;46.20;;;;;;5000276;28;20101;-71
2022/01/19 11:22:28;;;;;;;24.15;6.38;;;27.70;45.50;;;;;;5000748;28;20022;-71
2022/01/19 11:25:10;;;;;;;25.75;7.20;;;27.70;45.20;;;;;;4996992;28;20025;-70
2022/01/19 11:27:42;;;;;;;19.40;6.95;;;27.80;45.00;;;;;;4998885;28;20040;-70
2022/01/19 11:30:20;;;;;;;30.85;7.18;;;27.90;45.10;;;;;;5000947;28;20060;-70
2022/01/19 11:33:10;;;;;;;26.75;7.10;;;28.00;45.00;;;;;;4999976;28;20014;-71
2022/01/19 11:35:38;;;;;;;21.73;7.25;;;28.10;45.00;;;;;;4998419;28;20035;-70
2022/01/19 11:38:35;;;;;;;26.58;7.63;;;28.10;45.10;;;;;;5000496;28;20134;-70
2022/01/19 11:41:24;;;;;;;19.77;5.78;;;28.20;45.20;;;;;;4997134;28;20014;-70
2022/01/19 11:43:56;;;;;;;19.95;5.45;;;28.30;44.30;;;;;;4969299;28;20551;-73
2022/01/19 11:46:43;;;;;;;11.02;3.53;;;28.40;43.50;;;;;;4999026;28;20477;-70
2022/01/19 11:49:13;;;;;;;11.15;3.20;;;28.50;40.00;;;;;;4997778;28;20497;-71
2022/01/19 11:51:55;;;;;;;7.45;2.45;;;28.60;36.60;;;;;;4996475;28;20101;-70
2022/01/19 11:54:30;;;;;;;9.35;2.35;;;28.80;35.10;;;;;;4997611;28;20050;-72
2022/01/19 11:57:00;;;;;;;5.95;2.15;;;28.80;34.00;;;;;;4999663;28;20021;-70
2022/01/19 11:59:55;;;;;;;9.73;2.47;;;28.90;31.70;;;;;;5000128;28;20034;-71
2022/01/19 12:02:22;;;;;;;;;;;29.00;30.90;;;;;;4997968;28;20050;-71
2022/01/19 12:05:00;;;;;;;12.27;2.60;;;29.00;32.00;;;;;;4998902;28;19909;-70
2022/01/19 12:07:50;;;;;;;7.28;2.45;;;29.10;32.60;;;;;;4996019;28;20093;-69
2022/01/19 12:10:42;;;;;;;18.15;2.50;;;29.20;31.90;;;;;;5000492;28;20389;-70
2022/01/19 12:16:31;;;;;;;6.90;2.20;;;29.30;32.20;;;;;;4998937;28;20038;-70
2022/01/19 12:19:10;;;;;;;12.90;2.10;;;29.40;31.60;;;;;;4998650;28;20666;-71
2022/01/19 12:21:53;;;;;;;11.18;2.33;;;29.40;30.80;;;;;;4998252;28;20028;-71
2022/01/19 12:24:41;;;;;;;12.13;3.50;;;29.50;29.70;;;;;;4996571;28;20022;-70
2022/01/19 12:27:09;;;;;;;5.35;2.22;;;29.60;30.80;;;;;;5000004;28;20073;-70
2022/01/19 12:29:39;;;;;;;4.95;2.42;;;29.60;31.20;;;;;;4998742;28;20569;-70
2022/01/19 12:32:08;;;;;;;9.73;2.75;;;29.70;31.60;;;;;;4998933;28;20030;-71
2022/01/19 12:34:49;;;;;;;8.27;3.13;;;29.70;32.30;;;;;;4995596;28;20017;-72
2022/01/19 12:37:40;;;;;;;7.97;3.72;;;29.80;32.90;;;;;;4997575;28;20057;-73
2022/01/19 12:40:40;;;;;;;8.00;3.20;;;29.80;31.90;;;;;;4990101;28;20023;-71
2022/01/19 12:43:13;;;;;;;10.88;3.92;;;29.80;31.60;;;;;;4992556;28;20125;-70
2022/01/19 12:45:50;;;;;;;12.35;3.97;;;29.90;31.60;;;;;;4999613;28;20021;-74
2022/01/19 12:48:41;;;;;;;14.40;4.50;;;29.90;31.30;;;;;;4997410;28;20034;-68
2022/01/19 12:51:39;;;;;;;17.10;5.00;;;30.00;31.80;;;;;;4995434;28;20061;-70
2022/01/19 12:54:08;;;;;;;14.05;4.90;;;30.00;32.80;;;;;;4996823;28;20022;-69
2022/01/19 12:56:35;;;;;;;12.80;4.60;;;30.00;33.10;;;;;;4995686;28;20014;-70
2022/01/19 12:59:03;;;;;;;16.40;5.43;;;30.10;33.20;;;;;;4998914;28;20029;-70
2022/01/19 13:01:30;;;;;;;15.27;6.10;;;30.10;32.10;;;;;;4999356;28;20050;-69
2022/01/19 13:03:57;;;;;;;18.27;6.10;;;30.10;32.30;;;;;;4997705;28;20037;-69
2022/01/19 13:06:26;;;;;;;14.88;5.55;;;30.10;32.50;;;;;;4999960;28;20019;-71
2022/01/19 13:09:03;;;;;;;12.57;5.43;;;30.10;32.60;;;;;;4997759;28;20030;-70
2022/01/19 13:11:39;;;;;;;19.73;6.82;;;30.20;32.60;;;;;;4999387;28;20022;-70
2022/01/19 13:14:12;;;;;;;12.77;6.05;;;30.20;32.90;;;;;;4997838;28;20077;-70
2022/01/19 13:16:47;;;;;;;11.00;6.47;;;30.20;32.80;;;;;;4998904;28;20030;-69
2022/01/19 13:19:17;;;;;;;;;;;30.10;33.10;;;;;;4998674;28;20026;-69
2022/01/19 13:21:46;;;;;;;15.77;6.82;;;30.10;34.00;;;;;;4997887;28;19945;-72
2022/01/19 13:24:30;;;;;;;15.48;7.68;;;30.10;34.20;;;;;;4999394;28;20038;-69
2022/01/19 13:27:02;;;;;;;17.20;6.07;;;30.10;34.00;;;;;;4997668;28;20096;-69
2022/01/19 13:29:36;;;;;;;18.70;5.32;;;30.00;34.90;;;;;;4999199;28;20417;-72
2022/01/19 13:32:13;;;;;;;18.77;4.13;;;30.00;34.90;;;;;;4998350;28;20473;-69
2022/01/19 13:34:52;;;;;;;16.15;4.38;;;30.00;34.60;;;;;;4994352;28;20022;-69
2022/01/19 13:37:20;;;;;;;20.85;4.30;;;29.90;34.50;;;;;;4996018;28;20477;-71
2022/01/19 13:39:55;;;;;;;17.88;4.35;;;29.90;34.70;;;;;;4997405;28;20022;-69
2022/01/19 13:42:48;;;;;;;27.83;5.55;;;29.90;35.50;;;;;;4999348;28;20069;-69
2022/01/19 13:45:30;;;;;;;33.22;5.57;;;29.90;35.90;;;;;;4999065;28;20386;-69
2022/01/19 13:48:19;;;;;;;16.65;4.75;;;30.00;36.60;;;;;;4996775;28;20117;-71
2022/01/19 13:50:55;;;;;;;14.70;4.55;;;30.00;37.10;;;;;;4997909;28;20019;-74
2022/01/19 13:53:40;;;;;;;15.15;4.13;;;30.00;37.20;;;;;;4997702;28;20097;-69
2022/01/19 13:56:10;;;;;;;15.40;5.03;;;30.00;36.90;;;;;;4999683;28;20551;-69
2022/01/19 13:58:41;;;;;;;12.52;4.35;;;30.00;37.10;;;;;;4998359;28;20038;-70
2022/01/19 14:01:19;;;;;;;12.48;3.90;;;30.00;37.10;;;;;;4998076;28;20485;-69
2022/01/19 14:03:52;;;;;;;10.60;3.80;;;29.90;36.80;;;;;;4999555;28;20049;-71
2022/01/19 14:06:37;;;;;;;10.88;3.45;;;29.90;36.10;;;;;;5003264;28;20033;-69
2022/01/19 14:09:09;;;;;;;11.98;4.72;;;29.80;36.50;;;;;;5000908;28;20038;-70
2022/01/19 14:11:37;;;;;;;11.85;4.32;;;29.70;37.00;;;;;;5000334;28;20033;-70
2022/01/19 14:14:35;;;;;;;17.92;5.00;;;29.70;37.20;;;;;;5001802;28;20709;-70
2022/01/19 14:17:07;;;;;;;22.02;4.80;;;29.70;37.40;;;;;;4999969;28;20542;-69
2022/01/19 14:19:43;;;;;;;18.05;4.15;;;29.70;37.70;;;;;;5002596;28;20026;-69
2022/01/19 14:22:31;;;;;;;8.93;3.70;;;29.70;38.00;;;;;;5000725;28;20046;-69
2022/01/19 14:25:47;;;;;;;12.13;3.08;;;29.60;37.40;;;;;;4998307;28;20033;-71
2022/01/19 14:28:53;;;;;;;24.60;4.85;;;29.60;37.10;;;;;;4996934;28;20037;-68
2022/01/19 14:31:25;;;;;;;19.60;4.45;;;29.70;37.80;;;;;;5000036;28;20018;-74
2022/01/19 14:33:51;;;;;;;19.55;3.83;;;29.80;37.20;;;;;;5002486;28;20014;-72
2022/01/19 14:37:02;;;;;;;14.98;4.50;;;29.80;36.30;;;;;;4984530;28;20377;-75